createdAt,value
2023-03-12T00:01:46.200Z,8.57
2023-03-12T00:03:49.787Z,9.82
2023-03-12T00:05:51.852Z,10.07
2023-03-12T00:07:54.312Z,8.57
2023-03-12T00:11:58.292Z,6.82
2023-03-12T00:14:00.722Z,9.40
2023-03-12T00:16:10.084Z,10.45
2023-03-12T00:18:12.369Z,11.65
2023-03-12T00:20:14.828Z,10.13
2023-03-12T00:24:19.351Z,10.45
2023-03-12T00:26:22.188Z,10.43
2023-03-12T00:28:24.748Z,10.45
2023-03-12T00:30:28.450Z,12.32
2023-03-12T00:32:33.527Z,12.85
2023-03-12T00:34:35.550Z,11.15
2023-03-12T00:36:38.169Z,11.80
2023-03-12T00:38:43.467Z,13.15
2023-03-12T00:40:45.684Z,12.88
2023-03-12T00:42:47.675Z,13.95
2023-03-12T00:44:49.747Z,12.95
2023-03-12T00:46:51.803Z,14.65
2023-03-12T00:48:54.017Z,12.88
2023-03-12T00:50:56.244Z,16.50
2023-03-12T00:52:58.429Z,15.65
2023-03-12T00:55:00.488Z,17.90
2023-03-12T00:59:05.012Z,15.57
2023-03-12T01:01:07.209Z,19.15
2023-03-12T01:03:09.336Z,23.23
2023-03-12T01:05:12.768Z,27.90
2023-03-12T01:07:15.004Z,25.92
2023-03-12T01:09:17.103Z,38.70
2023-03-12T01:11:20.973Z,28.23
2023-03-12T01:13:23.220Z,41.70
2023-03-12T01:15:26.024Z,42.72
2023-03-12T01:17:28.121Z,62.33
2023-03-12T01:19:30.202Z,38.70
2023-03-12T01:21:32.901Z,47.45
2023-03-12T01:23:34.954Z,71.10
2023-03-12T01:25:38.149Z,61.15
2023-03-12T01:27:40.176Z,83.45
2023-03-12T01:29:42.736Z,56.92
2023-03-12T01:31:45.269Z,61.40
2023-03-12T01:33:52.234Z,52.53
2023-03-12T01:35:54.507Z,63.22
2023-03-12T01:37:57.753Z,55.78
2023-03-12T01:39:59.923Z,42.17
2023-03-12T01:42:02.472Z,55.90
2023-03-12T01:44:06.064Z,62.67
2023-03-12T01:46:31.787Z,48.17
2023-03-12T01:48:48.551Z,73.78
2023-03-12T01:50:51.761Z,66.97
2023-03-12T01:52:56.612Z,56.13
2023-03-12T01:55:02.053Z,60.65
2023-03-12T01:57:10.571Z,63.85
2023-03-12T01:59:41.395Z,64.32
2023-03-12T02:01:44.832Z,63.40
2023-03-12T02:03:52.418Z,71.57
2023-03-12T02:06:03.047Z,78.82
2023-03-12T02:08:06.021Z,84.75
2023-03-12T02:10:08.941Z,60.92
2023-03-12T02:12:11.633Z,57.75
2023-03-12T02:14:13.846Z,60.40
2023-03-12T02:16:15.913Z,60.92
2023-03-12T02:18:19.724Z,46.80
2023-03-12T02:20:30.582Z,59.60
2023-03-12T02:22:34.079Z,50.33
2023-03-12T02:24:42.540Z,54.00
2023-03-12T02:26:44.890Z,51.85
2023-03-12T02:30:53.027Z,52.53
2023-03-12T02:32:56.654Z,74.60
2023-03-12T02:35:00.781Z,52.05
2023-03-12T02:37:02.969Z,50.00
2023-03-12T02:39:06.000Z,49.63
2023-03-12T02:41:10.654Z,42.78
2023-03-12T02:43:13.613Z,45.90
2023-03-12T02:45:16.063Z,44.47
2023-03-12T02:47:18.234Z,45.20
2023-03-12T02:49:22.594Z,39.30
2023-03-12T02:51:24.953Z,39.10
2023-03-12T02:53:27.485Z,43.72
2023-03-12T02:55:29.600Z,33.90
2023-03-12T02:57:31.871Z,42.45
2023-03-12T03:01:36.659Z,33.72
2023-03-12T03:03:39.359Z,34.25
2023-03-12T03:05:41.344Z,30.98
2023-03-12T03:07:43.552Z,32.78
2023-03-12T03:09:45.562Z,32.83
2023-03-12T03:11:48.374Z,42.08
2023-03-12T03:13:54.491Z,32.80
2023-03-12T03:15:58.344Z,42.15
2023-03-12T03:18:03.931Z,48.58
2023-03-12T03:20:11.345Z,37.95
2023-03-12T03:22:13.519Z,45.42
2023-03-12T03:24:15.605Z,43.22
2023-03-12T03:26:20.949Z,40.28
2023-03-12T03:28:25.572Z,43.67
2023-03-12T03:30:27.649Z,44.83
2023-03-12T03:32:29.936Z,38.35
2023-03-12T03:34:32.121Z,50.92
2023-03-12T03:36:34.301Z,53.60
2023-03-12T03:38:42.145Z,48.83
2023-03-12T03:40:44.325Z,43.22
2023-03-12T03:42:46.808Z,40.28
2023-03-12T03:44:49.709Z,45.30
2023-03-12T03:46:51.854Z,54.00
2023-03-12T03:48:54.417Z,40.58
2023-03-12T03:51:05.672Z,51.95
2023-03-12T03:53:10.029Z,40.05
2023-03-12T03:55:12.171Z,36.22
2023-03-12T03:57:15.180Z,44.92
2023-03-12T03:59:17.187Z,42.33
2023-03-12T04:01:20.296Z,39.70
2023-03-12T04:03:23.298Z,42.25
2023-03-12T04:05:26.006Z,37.08
2023-03-12T04:07:29.226Z,38.47
2023-03-12T04:09:31.772Z,41.53
2023-03-12T04:11:33.871Z,40.38
2023-03-12T04:13:37.713Z,38.53
2023-03-12T04:15:49.686Z,35.92
2023-03-12T04:17:52.072Z,34.15
2023-03-12T04:19:54.884Z,33.88
2023-03-12T04:21:57.386Z,34.70
2023-03-12T04:23:59.585Z,35.83
2023-03-12T04:26:07.241Z,34.40
2023-03-12T04:28:10.691Z,32.75
2023-03-12T04:30:14.624Z,31.63
2023-03-12T04:32:17.068Z,32.33
2023-03-12T04:36:24.515Z,35.15
2023-03-12T04:38:28.782Z,32.60
2023-03-12T04:40:31.732Z,28.92
2023-03-12T04:42:36.104Z,34.38
2023-03-12T04:44:41.104Z,34.33
2023-03-12T04:46:43.731Z,38.45
2023-03-12T04:48:49.170Z,44.13
2023-03-12T04:50:51.492Z,30.33
2023-03-12T04:54:56.073Z,31.13
2023-03-12T04:59:01.654Z,35.63
2023-03-12T05:01:05.845Z,35.55
2023-03-12T05:03:08.961Z,34.85
2023-03-12T05:05:11.999Z,31.50
2023-03-12T05:07:15.301Z,33.28
2023-03-12T05:09:17.397Z,29.60
2023-03-12T05:13:23.048Z,32.67
2023-03-12T05:15:29.105Z,27.40
2023-03-12T05:17:31.945Z,23.35
2023-03-12T05:19:34.046Z,21.38
2023-03-12T05:21:36.500Z,25.38
2023-03-12T05:23:39.847Z,23.48
2023-03-12T05:25:42.433Z,24.83
2023-03-12T05:27:44.625Z,27.63
2023-03-12T05:29:47.925Z,22.15
2023-03-12T05:31:50.288Z,23.48
2023-03-12T05:33:53.162Z,23.00
2023-03-12T05:35:56.745Z,25.90
2023-03-12T05:40:01.418Z,23.35
2023-03-12T05:42:05.467Z,29.95
2023-03-12T05:44:12.808Z,30.25
2023-03-12T05:46:16.378Z,30.33
2023-03-12T05:48:19.194Z,38.15
2023-03-12T05:50:21.680Z,27.60
2023-03-12T05:54:26.133Z,34.97
2023-03-12T05:56:29.175Z,34.72
2023-03-12T05:58:33.259Z,41.25
2023-03-12T06:00:38.305Z,36.58
2023-03-12T06:02:43.270Z,36.75
2023-03-12T06:04:50.255Z,30.58
2023-03-12T06:06:52.857Z,33.78
2023-03-12T06:08:54.920Z,37.83
2023-03-12T06:10:56.980Z,36.10
2023-03-12T06:12:59.285Z,40.20
2023-03-12T06:15:02.033Z,39.22
2023-03-12T06:17:04.514Z,35.15
2023-03-12T06:19:07.778Z,34.67
2023-03-12T06:21:15.445Z,30.77
2023-03-12T06:23:19.715Z,37.75
2023-03-12T06:25:23.320Z,32.58
2023-03-12T06:27:25.426Z,36.33
2023-03-12T06:29:28.055Z,36.85
2023-03-12T06:31:30.151Z,34.97
2023-03-12T06:33:32.733Z,39.97
2023-03-12T06:37:37.602Z,36.40
2023-03-12T06:39:39.649Z,38.33
2023-03-12T06:41:41.976Z,46.53
2023-03-12T06:45:46.654Z,48.40
2023-03-12T06:47:48.840Z,45.42
2023-03-12T06:49:51.035Z,45.70
2023-03-12T06:51:53.405Z,47.45
2023-03-12T06:53:55.477Z,59.33
2023-03-12T06:55:58.327Z,51.20
2023-03-12T06:58:00.464Z,47.35
2023-03-12T07:00:04.228Z,41.25
2023-03-12T07:02:06.700Z,47.25
2023-03-12T07:04:08.825Z,48.03
2023-03-12T07:06:16.285Z,51.40
2023-03-12T07:08:18.880Z,42.75
2023-03-12T07:10:21.168Z,41.38
2023-03-12T07:12:23.194Z,43.58
2023-03-12T07:14:25.404Z,39.25
2023-03-12T07:16:27.922Z,44.63
2023-03-12T07:18:33.073Z,41.40
2023-03-12T07:20:40.150Z,44.75
2023-03-12T07:22:42.350Z,42.60
2023-03-12T07:26:46.660Z,42.80
2023-03-12T07:28:48.873Z,47.42
2023-03-12T07:30:51.185Z,36.30
2023-03-12T07:32:53.273Z,35.53
2023-03-12T07:34:55.582Z,41.80
2023-03-12T07:36:57.834Z,39.85
2023-03-12T07:39:00.461Z,37.30
2023-03-12T07:41:02.674Z,35.65
2023-03-12T07:43:07.172Z,42.13
2023-03-12T07:45:11.179Z,41.33
2023-03-12T07:47:23.537Z,36.10
2023-03-12T07:51:29.823Z,33.35
2023-03-12T07:55:35.495Z,32.13
2023-03-12T07:57:38.716Z,27.67
2023-03-12T07:59:41.054Z,27.50
2023-03-12T08:01:46.343Z,26.00
2023-03-12T08:03:49.251Z,35.72
2023-03-12T08:06:02.686Z,24.00
2023-03-12T08:08:04.895Z,26.85
2023-03-12T08:10:12.040Z,26.33
2023-03-12T08:12:14.216Z,28.70
2023-03-12T08:14:16.355Z,27.88
2023-03-12T08:16:18.792Z,27.50
2023-03-12T08:20:23.390Z,27.40
2023-03-12T08:22:25.569Z,23.90
2023-03-12T08:24:27.592Z,26.15
2023-03-12T08:26:29.998Z,25.92
2023-03-12T08:30:34.053Z,27.27
2023-03-12T08:32:37.054Z,23.70
2023-03-12T08:34:39.270Z,24.58
2023-03-12T08:36:41.569Z,23.65
